Date,TemperatureHighF,TemperatureAvgF,TemperatureLowF,DewpointHighF,DewpointAvgF,DewpointLowF,HumidityHigh,HumidityAvg,HumidityLow,PressureMaxIn,PressureMinIn,WindSpeedMaxMPH,WindSpeedAvgMPH,GustSpeedMaxMPH,PrecipitationSumIn
2012-12-1,86.7,79.7,75.2,74.8,69.6,66.7,76,71,66,30.07,29.98,9,3,12,0.00
2012-12-2,87.0,78.5,74.1,75.2,68.8,65.2,78,73,68,30.07,29.99,10,4,16,0.00
2012-12-3,89.2,79.2,73.2,76.1,68.8,64.5,75,71,64,30.10,29.98,9,3,13,0.00
2012-12-4,86.5,78.0,71.9,73.7,67.6,63.2,75,71,65,30.13,29.99,11,3,14,0.00
2012-12-5,90.6,77.7,70.8,77.2,67.4,62.9,78,71,65,30.07,29.93,7,2,10,0.00
2012-12-6,87.4,77.7,70.5,73.1,66.1,61.2,75,68,45,29.99,29.87,8,2,10,0.00
2012-12-7,90.6,77.6,69.2,76.7,67.0,61.3,76,70,64,29.96,29.84,7,1,10,0.00
2012-12-8,90.6,78.0,69.6,77.0,67.4,61.8,77,70,63,29.99,29.87,6,1,11,0.00
2012-12-9,89.4,78.7,71.2,75.8,69.0,62.8,79,73,64,30.01,29.87,8,2,11,0.08
2012-12-10,91.4,81.2,75.3,78.4,71.0,66.8,77,71,66,29.93,29.81,11,3,17,0.00
2012-12-11,87.4,81.7,77.1,75.1,70.9,66.7,78,70,67,29.96,29.81,12,3,19,0.00
2012-12-12,81.8,81.8,81.8,71.5,71.5,71.5,71,71,71,30.07,29.93,13,1,19,1.66
2012-12-13,81.8,81.8,81.8,71.5,71.5,71.5,71,71,71,30.16,30.01,0,0,0,2.60
2012-12-14,84.0,76.5,73.4,71.8,65.3,62.5,69,68,67,30.07,29.98,0,0,0,0.00
2012-12-15,73.4,73.4,73.4,62.5,62.5,62.5,69,69,69,30.04,29.90,0,0,0,0.00
2012-12-16,89.2,79.7,73.4,76.1,68.0,62.5,69,68,65,29.99,29.87,9,2,13,0.00
2012-12-17,78.4,78.4,78.4,66.9,66.9,66.9,68,68,68,29.93,29.78,9,2,17,0.08
2012-12-18,78.4,78.4,78.4,66.9,66.9,66.9,68,68,68,29.99,29.87,0,0,0,0.09
2012-12-21,82.9,76.6,73.5,72.6,66.0,62.3,81,70,68,30.22,30.04,16,11,22,0.00
2012-12-22,80.9,75.1,71.4,68.5,63.7,60.2,69,68,66,30.25,30.16,12,6,18,0.00
2012-12-23,81.1,73.2,68.3,67.2,61.0,56.5,68,66,59,30.19,30.07,8,2,13,0.00
2012-12-24,87.2,75.2,68.0,69.8,60.6,56.2,66,61,47,30.10,29.93,9,2,13,0.00
2012-12-25,87.0,77.1,69.0,75.3,64.5,56.3,98,65,61,29.96,29.78,11,2,17,0.00
2012-12-26,93.3,82.1,75.9,88.5,80.1,56.1,98,94,42,29.96,29.78,13,3,18,2.13
2012-12-27,84.9,81.8,81.3,83.6,80.7,80.3,97,97,96,29.99,29.84,9,5,13,0.04
2012-12-28,89.2,86.8,84.0,87.6,85.4,82.7,96,96,95,29.93,29.81,11,4,17,0.00
2012-12-29,86.7,86.7,86.7,85.4,85.4,85.4,96,96,96,30.10,29.87,11,2,16,0.00
2012-12-30,86.7,86.7,86.7,85.4,85.4,85.4,96,96,96,30.19,30.04,10,7,13,0.00